sensor_id;sensor_type;location;lat;lon;timestamp;temperature;humidity
15636;DHT22;7917;50.818;6.972;2023-04-03T00:01:04;4.50;1.00
15636;DHT22;7917;50.818;6.972;2023-04-03T00:03:34;4.40;1.00
15636;DHT22;7917;50.818;6.972;2023-04-03T00:06:02;4.40;1.00
15636;DHT22;7917;50.818;6.972;2023-04-03T00:08:29;4.40;1.00
15636;DHT22;7917;50.818;6.972;2023-04-03T00:10:56;4.40;1.00
15636;DHT22;7917;50.818;6.972;2023-04-03T00:13:23;4.40;1.00
15636;DHT22;7917;50.818;6.972;2023-04-03T00:15:49;4.40;1.00
15636;DHT22;7917;50.818;6.972;2023-04-03T00:18:15;4.40;1.00
15636;DHT22;7917;50.818;6.972;2023-04-03T00:20:43;4.30;1.00
15636;DHT22;7917;50.818;6.972;2023-04-03T00:23:09;4.40;1.00
15636;DHT22;7917;50.818;6.972;2023-04-03T00:25:36;4.40;1.00
15636;DHT22;7917;50.818;6.972;2023-04-03T00:28:03;4.40;1.00
15636;DHT22;7917;50.818;6.972;2023-04-03T00:30:30;4.40;1.00
15636;DHT22;7917;50.818;6.972;2023-04-03T00:32:57;4.40;1.00
15636;DHT22;7917;50.818;6.972;2023-04-03T00:35:24;4.40;1.00
15636;DHT22;7917;50.818;6.972;2023-04-03T00:37:52;4.30;1.00
15636;DHT22;7917;50.818;6.972;2023-04-03T00:40:19;4.30;1.00
15636;DHT22;7917;50.818;6.972;2023-04-03T00:42:47;4.30;1.00
15636;DHT22;7917;50.818;6.972;2023-04-03T00:45:29;4.30;1.00
15636;DHT22;7917;50.818;6.972;2023-04-03T00:47:56;4.30;1.00
15636;DHT22;7917;50.818;6.972;2023-04-03T00:50:25;4.30;1.00
15636;DHT22;7917;50.818;6.972;2023-04-03T00:52:53;4.30;1.00
15636;DHT22;7917;50.818;6.972;2023-04-03T00:55:19;4.30;1.00
15636;DHT22;7917;50.818;6.972;2023-04-03T00:57:46;4.30;1.00
15636;DHT22;7917;50.818;6.972;2023-04-03T01:00:17;4.20;1.00
15636;DHT22;7917;50.818;6.972;2023-04-03T01:02:45;4.20;1.00
15636;DHT22;7917;50.818;6.972;2023-04-03T01:05:12;4.10;1.00
15636;DHT22;7917;50.818;6.972;2023-04-03T01:07:39;4.10;1.00
15636;DHT22;7917;50.818;6.972;2023-04-03T01:10:09;4.00;1.00
15636;DHT22;7917;50.818;6.972;2023-04-03T01:12:38;3.90;1.00
15636;DHT22;7917;50.818;6.972;2023-04-03T01:15:07;3.90;1.00
15636;DHT22;7917;50.818;6.972;2023-04-03T01:17:37;3.90;1.00
15636;DHT22;7917;50.818;6.972;2023-04-03T01:20:39;3.80;1.00
15636;DHT22;7917;50.818;6.972;2023-04-03T01:23:24;3.70;1.00
15636;DHT22;7917;50.818;6.972;2023-04-03T01:25:55;3.70;1.00
15636;DHT22;7917;50.818;6.972;2023-04-03T01:28:24;3.60;1.00
15636;DHT22;7917;50.818;6.972;2023-04-03T01:30:55;3.50;33.90
15636;DHT22;7917;50.818;6.972;2023-04-03T01:35:51;3.40;22.40
15636;DHT22;7917;50.818;6.972;2023-04-03T01:38:18;3.40;1.00
15636;DHT22;7917;50.818;6.972;2023-04-03T01:40:46;3.30;1.00
15636;DHT22;7917;50.818;6.972;2023-04-03T01:43:12;3.30;22.10
15636;DHT22;7917;50.818;6.972;2023-04-03T01:45:39;3.20;99.90
15636;DHT22;7917;50.818;6.972;2023-04-03T01:48:05;3.20;99.90
15636;DHT22;7917;50.818;6.972;2023-04-03T01:50:33;3.10;18.20
15636;DHT22;7917;50.818;6.972;2023-04-03T01:52:59;3.00;99.90
15636;DHT22;7917;50.818;6.972;2023-04-03T01:55:26;3.10;29.90
15636;DHT22;7917;50.818;6.972;2023-04-03T01:57:53;3.10;1.00
15636;DHT22;7917;50.818;6.972;2023-04-03T02:00:19;3.00;99.90
15636;DHT22;7917;50.818;6.972;2023-04-03T02:02:46;2.90;99.90
15636;DHT22;7917;50.818;6.972;2023-04-03T02:05:13;2.80;99.90
15636;DHT22;7917;50.818;6.972;2023-04-03T02:07:40;2.80;99.90
15636;DHT22;7917;50.818;6.972;2023-04-03T02:10:07;2.80;99.90
15636;DHT22;7917;50.818;6.972;2023-04-03T02:12:33;2.70;99.90
15636;DHT22;7917;50.818;6.972;2023-04-03T02:15:00;2.70;99.90
15636;DHT22;7917;50.818;6.972;2023-04-03T02:17:27;2.70;99.90
15636;DHT22;7917;50.818;6.972;2023-04-03T02:19:53;2.70;99.90
15636;DHT22;7917;50.818;6.972;2023-04-03T02:22:20;2.70;99.90
15636;DHT22;7917;50.818;6.972;2023-04-03T02:24:47;2.60;99.90
15636;DHT22;7917;50.818;6.972;2023-04-03T02:27:13;2.60;99.90
15636;DHT22;7917;50.818;6.972;2023-04-03T02:29:40;2.60;99.90
15636;DHT22;7917;50.818;6.972;2023-04-03T02:32:07;3.40;99.90
15636;DHT22;7917;50.818;6.972;2023-04-03T02:34:33;2.60;99.90
15636;DHT22;7917;50.818;6.972;2023-04-03T02:37:00;2.60;99.90
15636;DHT22;7917;50.818;6.972;2023-04-03T02:39:26;3.50;99.90
15636;DHT22;7917;50.818;6.972;2023-04-03T02:41:53;2.50;99.90
15636;DHT22;7917;50.818;6.972;2023-04-03T02:44:19;2.50;99.90
15636;DHT22;7917;50.818;6.972;2023-04-03T02:46:46;2.50;99.90
15636;DHT22;7917;50.818;6.972;2023-04-03T02:49:12;2.40;99.90
15636;DHT22;7917;50.818;6.972;2023-04-03T02:51:39;2.40;99.90
15636;DHT22;7917;50.818;6.972;2023-04-03T02:54:06;2.30;1.00
15636;DHT22;7917;50.818;6.972;2023-04-03T02:56:32;2.30;1.00
15636;DHT22;7917;50.818;6.972;2023-04-03T02:58:59;2.30;1.00
15636;DHT22;7917;50.818;6.972;2023-04-03T03:05:13;2.20;99.90
15636;DHT22;7917;50.818;6.972;2023-04-03T03:07:40;2.10;99.90
15636;DHT22;7917;50.818;6.972;2023-04-03T03:10:07;2.00;99.90
15636;DHT22;7917;50.818;6.972;2023-04-03T03:12:34;1.90;1.00
15636;DHT22;7917;50.818;6.972;2023-04-03T03:15:01;1.80;99.90
15636;DHT22;7917;50.818;6.972;2023-04-03T03:17:28;1.80;99.90
15636;DHT22;7917;50.818;6.972;2023-04-03T03:19:54;1.70;99.90
15636;DHT22;7917;50.818;6.972;2023-04-03T03:22:21;1.70;1.00
15636;DHT22;7917;50.818;6.972;2023-04-03T03:24:47;1.60;1.00
15636;DHT22;7917;50.818;6.972;2023-04-03T03:27:13;1.60;1.00
15636;DHT22;7917;50.818;6.972;2023-04-03T03:29:41;1.60;1.00
15636;DHT22;7917;50.818;6.972;2023-04-03T03:32:08;1.60;1.00
15636;DHT22;7917;50.818;6.972;2023-04-03T03:34:35;1.50;1.00
15636;DHT22;7917;50.818;6.972;2023-04-03T03:37:01;1.40;1.00
15636;DHT22;7917;50.818;6.972;2023-04-03T03:39:28;1.40;34.70
15636;DHT22;7917;50.818;6.972;2023-04-03T03:41:54;1.30;99.90
15636;DHT22;7917;50.818;6.972;2023-04-03T03:44:21;1.20;99.90
15636;DHT22;7917;50.818;6.972;2023-04-03T03:46:47;1.10;1.00
15636;DHT22;7917;50.818;6.972;2023-04-03T03:49:14;1.00;1.00
15636;DHT22;7917;50.818;6.972;2023-04-03T03:51:41;1.00;99.90
15636;DHT22;7917;50.818;6.972;2023-04-03T03:54:09;0.90;1.00
15636;DHT22;7917;50.818;6.972;2023-04-03T03:56:35;0.90;1.00
15636;DHT22;7917;50.818;6.972;2023-04-03T03:59:02;0.90;1.00
15636;DHT22;7917;50.818;6.972;2023-04-03T04:01:28;0.90;1.00
15636;DHT22;7917;50.818;6.972;2023-04-03T04:03:55;0.90;1.00
15636;DHT22;7917;50.818;6.972;2023-04-03T04:06:23;0.80;99.90
15636;DHT22;7917;50.818;6.972;2023-04-03T04:08:49;0.80;99.90
15636;DHT22;7917;50.818;6.972;2023-04-03T04:11:16;0.80;1.00
15636;DHT22;7917;50.818;6.972;2023-04-03T04:13:42;0.70;1.00
15636;DHT22;7917;50.818;6.972;2023-04-03T04:16:09;0.80;1.00
15636;DHT22;7917;50.818;6.972;2023-04-03T04:18:36;0.80;1.00
15636;DHT22;7917;50.818;6.972;2023-04-03T04:21:02;0.80;31.50
15636;DHT22;7917;50.818;6.972;2023-04-03T04:23:30;0.80;1.00
15636;DHT22;7917;50.818;6.972;2023-04-03T04:25:56;0.60;79.40
15636;DHT22;7917;50.818;6.972;2023-04-03T04:28:23;0.60;99.90
15636;DHT22;7917;50.818;6.972;2023-04-03T04:30:49;0.90;1.00
15636;DHT22;7917;50.818;6.972;2023-04-03T04:33:15;0.50;1.00
15636;DHT22;7917;50.818;6.972;2023-04-03T04:35:42;0.50;98.90
15636;DHT22;7917;50.818;6.972;2023-04-03T04:38:09;0.40;99.90
15636;DHT22;7917;50.818;6.972;2023-04-03T04:40:36;0.60;1.00
15636;DHT22;7917;50.818;6.972;2023-04-03T04:43:03;0.60;1.00
15636;DHT22;7917;50.818;6.972;2023-04-03T04:45:29;0.70;99.90
15636;DHT22;7917;50.818;6.972;2023-04-03T04:47:56;0.60;1.00
15636;DHT22;7917;50.818;6.972;2023-04-03T04:50:22;0.60;1.00
15636;DHT22;7917;50.818;6.972;2023-04-03T04:52:49;0.50;1.00
15636;DHT22;7917;50.818;6.972;2023-04-03T04:55:16;0.50;1.00
15636;DHT22;7917;50.818;6.972;2023-04-03T04:57:43;0.50;1.00
15636;DHT22;7917;50.818;6.972;2023-04-03T05:00:11;0.50;1.00
15636;DHT22;7917;50.818;6.972;2023-04-03T05:02:38;0.50;99.90
15636;DHT22;7917;50.818;6.972;2023-04-03T05:05:04;0.40;1.00
15636;DHT22;7917;50.818;6.972;2023-04-03T05:07:31;0.30;1.00
15636;DHT22;7917;50.818;6.972;2023-04-03T05:09:58;0.30;99.90
15636;DHT22;7917;50.818;6.972;2023-04-03T05:12:24;0.30;99.90
15636;DHT22;7917;50.818;6.972;2023-04-03T05:14:51;0.40;1.00
15636;DHT22;7917;50.818;6.972;2023-04-03T05:17:18;0.30;1.00
15636;DHT22;7917;50.818;6.972;2023-04-03T05:19:45;0.40;99.90
15636;DHT22;7917;50.818;6.972;2023-04-03T05:22:11;0.50;99.90
15636;DHT22;7917;50.818;6.972;2023-04-03T05:24:38;0.60;1.00
15636;DHT22;7917;50.818;6.972;2023-04-03T05:27:05;0.70;99.90
15636;DHT22;7917;50.818;6.972;2023-04-03T05:29:31;0.90;1.00
15636;DHT22;7917;50.818;6.972;2023-04-03T05:31:58;0.90;1.00
15636;DHT22;7917;50.818;6.972;2023-04-03T05:34:25;0.90;1.00
15636;DHT22;7917;50.818;6.972;2023-04-03T05:36:52;0.90;99.90
15636;DHT22;7917;50.818;6.972;2023-04-03T05:39:18;1.00;1.00
15636;DHT22;7917;50.818;6.972;2023-04-03T05:41:45;1.20;99.90
15636;DHT22;7917;50.818;6.972;2023-04-03T05:44:12;1.30;1.00
15636;DHT22;7917;50.818;6.972;2023-04-03T05:46:38;1.40;99.90
15636;DHT22;7917;50.818;6.972;2023-04-03T05:49:06;1.40;1.00
15636;DHT22;7917;50.818;6.972;2023-04-03T05:51:35;1.40;1.00
15636;DHT22;7917;50.818;6.972;2023-04-03T05:54:06;1.40;1.00
15636;DHT22;7917;50.818;6.972;2023-04-03T05:56:33;1.40;1.00
15636;DHT22;7917;50.818;6.972;2023-04-03T05:59:00;1.40;1.00
15636;DHT22;7917;50.818;6.972;2023-04-03T06:01:26;1.40;22.20
15636;DHT22;7917;50.818;6.972;2023-04-03T06:03:53;1.50;99.90
15636;DHT22;7917;50.818;6.972;2023-04-03T06:06:21;1.60;1.00
15636;DHT22;7917;50.818;6.972;2023-04-03T06:08:48;1.60;1.00
15636;DHT22;7917;50.818;6.972;2023-04-03T06:11:15;1.70;99.90
15636;DHT22;7917;50.818;6.972;2023-04-03T06:13:42;1.80;99.90
15636;DHT22;7917;50.818;6.972;2023-04-03T06:16:09;2.00;41.20
15636;DHT22;7917;50.818;6.972;2023-04-03T06:18:39;2.10;1.00
15636;DHT22;7917;50.818;6.972;2023-04-03T06:21:07;2.20;1.00
15636;DHT22;7917;50.818;6.972;2023-04-03T06:23:40;2.40;1.00
15636;DHT22;7917;50.818;6.972;2023-04-03T06:26:07;2.70;1.00
15636;DHT22;7917;50.818;6.972;2023-04-03T06:28:33;2.80;1.00
15636;DHT22;7917;50.818;6.972;2023-04-03T06:31:00;3.00;1.00
15636;DHT22;7917;50.818;6.972;2023-04-03T06:33:26;3.20;1.00
15636;DHT22;7917;50.818;6.972;2023-04-03T06:35:58;3.40;1.00
15636;DHT22;7917;50.818;6.972;2023-04-03T06:38:26;3.60;99.90
15636;DHT22;7917;50.818;6.972;2023-04-03T06:40:53;3.80;99.90
15636;DHT22;7917;50.818;6.972;2023-04-03T06:43:20;4.00;99.90
15636;DHT22;7917;50.818;6.972;2023-04-03T06:45:47;4.20;99.90
15636;DHT22;7917;50.818;6.972;2023-04-03T06:48:13;4.30;99.90
15636;DHT22;7917;50.818;6.972;2023-04-03T06:50:40;4.50;99.90
15636;DHT22;7917;50.818;6.972;2023-04-03T06:53:06;4.70;99.90
15636;DHT22;7917;50.818;6.972;2023-04-03T06:55:33;4.80;99.90
15636;DHT22;7917;50.818;6.972;2023-04-03T06:58:00;4.90;99.90
15636;DHT22;7917;50.818;6.972;2023-04-03T07:00:27;5.10;99.90
15636;DHT22;7917;50.818;6.972;2023-04-03T07:02:54;5.30;99.90
15636;DHT22;7917;50.818;6.972;2023-04-03T07:05:22;5.40;99.90
15636;DHT22;7917;50.818;6.972;2023-04-03T07:07:49;5.50;99.90
15636;DHT22;7917;50.818;6.972;2023-04-03T07:10:16;5.60;99.90
15636;DHT22;7917;50.818;6.972;2023-04-03T07:12:42;5.60;99.90
15636;DHT22;7917;50.818;6.972;2023-04-03T07:15:10;5.60;99.90
15636;DHT22;7917;50.818;6.972;2023-04-03T07:17:38;5.80;99.90
15636;DHT22;7917;50.818;6.972;2023-04-03T07:20:05;5.80;99.90
15636;DHT22;7917;50.818;6.972;2023-04-03T07:22:32;5.80;99.90
15636;DHT22;7917;50.818;6.972;2023-04-03T07:24:59;6.00;99.90
15636;DHT22;7917;50.818;6.972;2023-04-03T07:27:25;6.00;99.90
15636;DHT22;7917;50.818;6.972;2023-04-03T07:29:52;6.20;99.90
15636;DHT22;7917;50.818;6.972;2023-04-03T07:32:19;6.30;99.90
15636;DHT22;7917;50.818;6.972;2023-04-03T07:34:46;6.50;99.90
15636;DHT22;7917;50.818;6.972;2023-04-03T07:37:12;6.40;99.90
15636;DHT22;7917;50.818;6.972;2023-04-03T07:39:39;6.50;99.90
15636;DHT22;7917;50.818;6.972;2023-04-03T07:42:06;6.50;99.90
15636;DHT22;7917;50.818;6.972;2023-04-03T07:44:33;6.40;99.90
15636;DHT22;7917;50.818;6.972;2023-04-03T07:46:59;6.50;99.90
15636;DHT22;7917;50.818;6.972;2023-04-03T07:49:27;6.60;99.90
15636;DHT22;7917;50.818;6.972;2023-04-03T07:51:54;6.80;99.90
15636;DHT22;7917;50.818;6.972;2023-04-03T07:54:21;6.80;99.90
15636;DHT22;7917;50.818;6.972;2023-04-03T07:56:48;6.70;99.90
15636;DHT22;7917;50.818;6.972;2023-04-03T07:59:14;6.70;99.90
15636;DHT22;7917;50.818;6.972;2023-04-03T08:01:41;6.80;99.90
15636;DHT22;7917;50.818;6.972;2023-04-03T08:04:08;6.70;99.90
15636;DHT22;7917;50.818;6.972;2023-04-03T08:06:35;6.90;99.90
15636;DHT22;7917;50.818;6.972;2023-04-03T08:09:05;7.00;99.90
15636;DHT22;7917;50.818;6.972;2023-04-03T08:11:32;7.10;99.90
15636;DHT22;7917;50.818;6.972;2023-04-03T08:13:58;7.20;99.90
15636;DHT22;7917;50.818;6.972;2023-04-03T08:16:25;7.30;99.90
15636;DHT22;7917;50.818;6.972;2023-04-03T08:18:53;7.40;99.90
15636;DHT22;7917;50.818;6.972;2023-04-03T08:21:20;7.40;99.90
15636;DHT22;7917;50.818;6.972;2023-04-03T08:23:49;7.50;99.90
15636;DHT22;7917;50.818;6.972;2023-04-03T08:26:18;7.50;99.90
15636;DHT22;7917;50.818;6.972;2023-04-03T08:28:45;7.60;99.90
15636;DHT22;7917;50.818;6.972;2023-04-03T08:31:14;7.80;99.90
15636;DHT22;7917;50.818;6.972;2023-04-03T08:33:41;7.90;99.90
15636;DHT22;7917;50.818;6.972;2023-04-03T08:36:15;7.70;99.90
15636;DHT22;7917;50.818;6.972;2023-04-03T08:38:42;7.70;99.90
15636;DHT22;7917;50.818;6.972;2023-04-03T08:41:15;7.80;99.90
15636;DHT22;7917;50.818;6.972;2023-04-03T08:44:03;7.90;99.90
15636;DHT22;7917;50.818;6.972;2023-04-03T08:46:42;7.90;99.90
15636;DHT22;7917;50.818;6.972;2023-04-03T08:49:13;8.00;99.90
15636;DHT22;7917;50.818;6.972;2023-04-03T08:51:46;8.00;99.90
15636;DHT22;7917;50.818;6.972;2023-04-03T08:54:23;8.10;99.90
15636;DHT22;7917;50.818;6.972;2023-04-03T08:56:52;8.00;99.90
15636;DHT22;7917;50.818;6.972;2023-04-03T08:59:24;7.90;99.90
15636;DHT22;7917;50.818;6.972;2023-04-03T09:01:52;7.90;99.90
15636;DHT22;7917;50.818;6.972;2023-04-03T09:04:19;7.70;99.90
15636;DHT22;7917;50.818;6.972;2023-04-03T09:06:50;7.60;99.90
15636;DHT22;7917;50.818;6.972;2023-04-03T09:09:27;7.70;99.90
15636;DHT22;7917;50.818;6.972;2023-04-03T09:12:02;7.80;99.90
15636;DHT22;7917;50.818;6.972;2023-04-03T09:14:39;8.00;99.90
15636;DHT22;7917;50.818;6.972;2023-04-03T09:17:13;8.00;99.90
15636;DHT22;7917;50.818;6.972;2023-04-03T09:19:43;8.10;99.90
15636;DHT22;7917;50.818;6.972;2023-04-03T09:22:16;8.20;99.90
15636;DHT22;7917;50.818;6.972;2023-04-03T09:24:45;8.00;99.90
15636;DHT22;7917;50.818;6.972;2023-04-03T09:27:13;8.20;99.90
15636;DHT22;7917;50.818;6.972;2023-04-03T09:29:42;8.20;99.90
15636;DHT22;7917;50.818;6.972;2023-04-03T09:32:21;8.30;99.90
15636;DHT22;7917;50.818;6.972;2023-04-03T09:34:49;8.30;99.90
15636;DHT22;7917;50.818;6.972;2023-04-03T09:37:36;8.00;99.90
15636;DHT22;7917;50.818;6.972;2023-04-03T09:40:05;8.10;99.90
15636;DHT22;7917;50.818;6.972;2023-04-03T09:42:33;8.10;99.90
15636;DHT22;7917;50.818;6.972;2023-04-03T09:45:18;8.20;99.90
15636;DHT22;7917;50.818;6.972;2023-04-03T09:47:47;8.30;99.90
15636;DHT22;7917;50.818;6.972;2023-04-03T09:50:22;8.30;99.90
15636;DHT22;7917;50.818;6.972;2023-04-03T09:52:50;8.20;99.90
15636;DHT22;7917;50.818;6.972;2023-04-03T09:55:19;8.30;99.90
15636;DHT22;7917;50.818;6.972;2023-04-03T09:57:53;8.10;99.90
15636;DHT22;7917;50.818;6.972;2023-04-03T10:00:22;7.70;99.90
15636;DHT22;7917;50.818;6.972;2023-04-03T10:02:51;7.90;99.90
15636;DHT22;7917;50.818;6.972;2023-04-03T10:05:29;8.10;99.90
15636;DHT22;7917;50.818;6.972;2023-04-03T10:08:09;8.30;99.90
15636;DHT22;7917;50.818;6.972;2023-04-03T10:10:36;8.30;99.90
15636;DHT22;7917;50.818;6.972;2023-04-03T10:13:12;8.60;99.90
15636;DHT22;7917;50.818;6.972;2023-04-03T10:15:42;8.60;99.90
15636;DHT22;7917;50.818;6.972;2023-04-03T10:18:24;8.80;99.90
15636;DHT22;7917;50.818;6.972;2023-04-03T10:20:57;9.00;99.90
15636;DHT22;7917;50.818;6.972;2023-04-03T10:23:29;8.90;99.90
15636;DHT22;7917;50.818;6.972;2023-04-03T10:26:05;8.90;99.90
15636;DHT22;7917;50.818;6.972;2023-04-03T10:28:43;8.90;99.90
15636;DHT22;7917;50.818;6.972;2023-04-03T10:31:15;8.90;99.90
15636;DHT22;7917;50.818;6.972;2023-04-03T10:33:55;9.10;99.90
15636;DHT22;7917;50.818;6.972;2023-04-03T10:36:31;9.20;99.90
15636;DHT22;7917;50.818;6.972;2023-04-03T10:39:04;9.10;99.90
15636;DHT22;7917;50.818;6.972;2023-04-03T10:41:41;9.20;99.90
15636;DHT22;7917;50.818;6.972;2023-04-03T10:44:18;9.30;99.90
15636;DHT22;7917;50.818;6.972;2023-04-03T10:46:49;9.40;99.90
15636;DHT22;7917;50.818;6.972;2023-04-03T10:49:25;9.40;99.90
15636;DHT22;7917;50.818;6.972;2023-04-03T10:52:04;9.20;99.90
15636;DHT22;7917;50.818;6.972;2023-04-03T10:54:36;9.20;99.90
15636;DHT22;7917;50.818;6.972;2023-04-03T10:57:06;9.20;99.90
15636;DHT22;7917;50.818;6.972;2023-04-03T10:59:38;9.20;99.90
15636;DHT22;7917;50.818;6.972;2023-04-03T11:02:11;9.30;99.90
15636;DHT22;7917;50.818;6.972;2023-04-03T11:04:43;9.60;99.90
15636;DHT22;7917;50.818;6.972;2023-04-03T11:07:14;9.80;99.90
15636;DHT22;7917;50.818;6.972;2023-04-03T11:09:44;9.80;99.90
15636;DHT22;7917;50.818;6.972;2023-04-03T11:12:16;9.80;99.90
15636;DHT22;7917;50.818;6.972;2023-04-03T11:14:45;9.90;99.90
15636;DHT22;7917;50.818;6.972;2023-04-03T11:17:28;10.20;99.90
15636;DHT22;7917;50.818;6.972;2023-04-03T11:20:01;10.10;99.90
15636;DHT22;7917;50.818;6.972;2023-04-03T11:22:41;9.90;99.90
15636;DHT22;7917;50.818;6.972;2023-04-03T11:25:17;10.00;99.90
15636;DHT22;7917;50.818;6.972;2023-04-03T11:27:51;10.30;99.90
15636;DHT22;7917;50.818;6.972;2023-04-03T11:30:24;10.30;99.90
15636;DHT22;7917;50.818;6.972;2023-04-03T11:33:13;10.10;99.90
15636;DHT22;7917;50.818;6.972;2023-04-03T11:35:43;10.10;99.90
15636;DHT22;7917;50.818;6.972;2023-04-03T11:38:19;10.00;99.90
15636;DHT22;7917;50.818;6.972;2023-04-03T11:40:49;10.00;99.90
15636;DHT22;7917;50.818;6.972;2023-04-03T11:43:24;10.10;99.90
15636;DHT22;7917;50.818;6.972;2023-04-03T11:45:57;10.30;99.90
15636;DHT22;7917;50.818;6.972;2023-04-03T11:48:50;10.30;99.90
15636;DHT22;7917;50.818;6.972;2023-04-03T11:51:41;10.50;99.90
15636;DHT22;7917;50.818;6.972;2023-04-03T11:54:47;10.60;99.70
15636;DHT22;7917;50.818;6.972;2023-04-03T12:00:48;10.70;99.00
15636;DHT22;7917;50.818;6.972;2023-04-03T12:03:34;10.90;98.20
15636;DHT22;7917;50.818;6.972;2023-04-03T12:09:56;11.10;96.30
15636;DHT22;7917;50.818;6.972;2023-04-03T12:12:41;11.20;97.10
15636;DHT22;7917;50.818;6.972;2023-04-03T12:18:42;11.20;95.70
15636;DHT22;7917;50.818;6.972;2023-04-03T12:21:09;11.30;96.00
15636;DHT22;7917;50.818;6.972;2023-04-03T12:23:37;11.10;95.80
15636;DHT22;7917;50.818;6.972;2023-04-03T12:26:24;11.00;95.30
15636;DHT22;7917;50.818;6.972;2023-04-03T12:28:53;11.00;95.40
15636;DHT22;7917;50.818;6.972;2023-04-03T12:31:24;11.00;95.10
15636;DHT22;7917;50.818;6.972;2023-04-03T12:34:11;11.00;94.90
15636;DHT22;7917;50.818;6.972;2023-04-03T12:36:49;11.10;94.10
15636;DHT22;7917;50.818;6.972;2023-04-03T12:42:24;11.30;93.40
15636;DHT22;7917;50.818;6.972;2023-04-03T12:44:57;11.40;91.30
15636;DHT22;7917;50.818;6.972;2023-04-03T12:47:28;11.50;91.30
15636;DHT22;7917;50.818;6.972;2023-04-03T12:49:59;11.40;91.70
15636;DHT22;7917;50.818;6.972;2023-04-03T12:52:37;11.50;92.10
15636;DHT22;7917;50.818;6.972;2023-04-03T12:55:13;11.30;90.80
15636;DHT22;7917;50.818;6.972;2023-04-03T12:57:40;11.50;99.90
15636;DHT22;7917;50.818;6.972;2023-04-03T13:00:30;11.50;90.20
15636;DHT22;7917;50.818;6.972;2023-04-03T13:02:58;11.60;90.20
15636;DHT22;7917;50.818;6.972;2023-04-03T13:05:28;11.70;89.40
15636;DHT22;7917;50.818;6.972;2023-04-03T13:07:59;11.70;87.90
15636;DHT22;7917;50.818;6.972;2023-04-03T13:10:29;11.80;88.50
15636;DHT22;7917;50.818;6.972;2023-04-03T13:12:59;11.80;88.30
15636;DHT22;7917;50.818;6.972;2023-04-03T13:15:41;11.80;84.90
15636;DHT22;7917;50.818;6.972;2023-04-03T13:18:22;11.80;85.40
15636;DHT22;7917;50.818;6.972;2023-04-03T13:20:50;12.00;85.20
15636;DHT22;7917;50.818;6.972;2023-04-03T13:23:17;12.20;82.90
15636;DHT22;7917;50.818;6.972;2023-04-03T13:25:47;12.10;81.10
15636;DHT22;7917;50.818;6.972;2023-04-03T13:28:18;11.90;80.80
15636;DHT22;7917;50.818;6.972;2023-04-03T13:31:04;11.60;83.10
15636;DHT22;7917;50.818;6.972;2023-04-03T13:33:33;11.60;81.10
15636;DHT22;7917;50.818;6.972;2023-04-03T13:36:06;11.60;83.80
15636;DHT22;7917;50.818;6.972;2023-04-03T13:38:34;11.70;83.70
15636;DHT22;7917;50.818;6.972;2023-04-03T13:41:04;11.40;83.50
15636;DHT22;7917;50.818;6.972;2023-04-03T13:43:32;11.60;81.70
15636;DHT22;7917;50.818;6.972;2023-04-03T13:46:20;11.50;83.40
15636;DHT22;7917;50.818;6.972;2023-04-03T13:48:49;11.50;80.80
15636;DHT22;7917;50.818;6.972;2023-04-03T13:51:23;11.70;82.70
15636;DHT22;7917;50.818;6.972;2023-04-03T13:53:53;11.80;81.60
15636;DHT22;7917;50.818;6.972;2023-04-03T13:56:24;11.70;81.70
15636;DHT22;7917;50.818;6.972;2023-04-03T13:58:55;12.00;80.20
15636;DHT22;7917;50.818;6.972;2023-04-03T14:01:23;12.00;80.50
15636;DHT22;7917;50.818;6.972;2023-04-03T14:03:54;12.00;78.90
15636;DHT22;7917;50.818;6.972;2023-04-03T14:06:22;12.20;77.50
15636;DHT22;7917;50.818;6.972;2023-04-03T14:08:49;12.20;77.20
15636;DHT22;7917;50.818;6.972;2023-04-03T14:11:18;12.20;77.70
15636;DHT22;7917;50.818;6.972;2023-04-03T14:13:47;12.30;76.60
15636;DHT22;7917;50.818;6.972;2023-04-03T14:16:15;12.40;76.80
15636;DHT22;7917;50.818;6.972;2023-04-03T14:18:43;12.50;72.70
15636;DHT22;7917;50.818;6.972;2023-04-03T14:21:11;12.50;71.40
15636;DHT22;7917;50.818;6.972;2023-04-03T14:23:39;12.40;73.70
15636;DHT22;7917;50.818;6.972;2023-04-03T14:26:12;12.40;75.00
15636;DHT22;7917;50.818;6.972;2023-04-03T14:28:39;12.20;76.10
15636;DHT22;7917;50.818;6.972;2023-04-03T14:31:06;12.40;75.00
15636;DHT22;7917;50.818;6.972;2023-04-03T14:33:33;12.70;70.90
15636;DHT22;7917;50.818;6.972;2023-04-03T14:36:04;12.90;67.90
15636;DHT22;7917;50.818;6.972;2023-04-03T14:38:31;13.00;65.50
15636;DHT22;7917;50.818;6.972;2023-04-03T14:40:59;13.60;58.90
15636;DHT22;7917;50.818;6.972;2023-04-03T14:43:25;13.80;56.40
15636;DHT22;7917;50.818;6.972;2023-04-03T14:45:52;14.10;51.80
15636;DHT22;7917;50.818;6.972;2023-04-03T14:48:21;14.70;49.80
15636;DHT22;7917;50.818;6.972;2023-04-03T14:50:49;15.00;45.00
15636;DHT22;7917;50.818;6.972;2023-04-03T14:53:16;15.20;44.20
15636;DHT22;7917;50.818;6.972;2023-04-03T14:55:45;15.50;39.40
15636;DHT22;7917;50.818;6.972;2023-04-03T14:58:14;15.70;38.60
15636;DHT22;7917;50.818;6.972;2023-04-03T15:00:41;16.10;35.60
15636;DHT22;7917;50.818;6.972;2023-04-03T15:03:14;16.30;31.50
15636;DHT22;7917;50.818;6.972;2023-04-03T15:05:41;17.00;27.80
15636;DHT22;7917;50.818;6.972;2023-04-03T15:08:16;17.30;25.40
15636;DHT22;7917;50.818;6.972;2023-04-03T15:10:44;17.40;24.50
15636;DHT22;7917;50.818;6.972;2023-04-03T15:13:12;17.20;24.90
15636;DHT22;7917;50.818;6.972;2023-04-03T15:15:39;17.30;23.40
15636;DHT22;7917;50.818;6.972;2023-04-03T15:18:06;17.50;21.00
15636;DHT22;7917;50.818;6.972;2023-04-03T15:20:33;17.70;19.50
15636;DHT22;7917;50.818;6.972;2023-04-03T15:23:00;17.50;20.80
15636;DHT22;7917;50.818;6.972;2023-04-03T15:25:27;18.00;35.40
15636;DHT22;7917;50.818;6.972;2023-04-03T15:27:54;18.60;13.10
15636;DHT22;7917;50.818;6.972;2023-04-03T15:30:21;18.50;14.60
15636;DHT22;7917;50.818;6.972;2023-04-03T15:32:48;18.80;12.80
15636;DHT22;7917;50.818;6.972;2023-04-03T15:35:15;18.50;13.00
15636;DHT22;7917;50.818;6.972;2023-04-03T15:37:42;18.50;12.50
15636;DHT22;7917;50.818;6.972;2023-04-03T15:40:09;18.30;13.30
15636;DHT22;7917;50.818;6.972;2023-04-03T15:42:36;18.00;14.70
15636;DHT22;7917;50.818;6.972;2023-04-03T15:45:03;18.30;13.00
15636;DHT22;7917;50.818;6.972;2023-04-03T15:47:30;18.00;29.60
15636;DHT22;7917;50.818;6.972;2023-04-03T15:50:18;17.50;16.10
15636;DHT22;7917;50.818;6.972;2023-04-03T15:52:45;16.60;20.10
15636;DHT22;7917;50.818;6.972;2023-04-03T15:55:11;16.00;24.70
15636;DHT22;7917;50.818;6.972;2023-04-03T15:57:38;15.40;29.00
15636;DHT22;7917;50.818;6.972;2023-04-03T16:00:06;15.10;31.60
15636;DHT22;7917;50.818;6.972;2023-04-03T16:02:33;14.30;37.00
15636;DHT22;7917;50.818;6.972;2023-04-03T16:05:00;14.10;40.40
15636;DHT22;7917;50.818;6.972;2023-04-03T16:07:27;13.60;42.10
15636;DHT22;7917;50.818;6.972;2023-04-03T16:09:54;13.20;45.70
15636;DHT22;7917;50.818;6.972;2023-04-03T16:12:20;13.10;47.90
15636;DHT22;7917;50.818;6.972;2023-04-03T16:14:47;13.10;48.30
15636;DHT22;7917;50.818;6.972;2023-04-03T16:17:14;13.10;48.90
15636;DHT22;7917;50.818;6.972;2023-04-03T16:19:41;12.70;50.90
15636;DHT22;7917;50.818;6.972;2023-04-03T16:22:07;12.40;55.10
15636;DHT22;7917;50.818;6.972;2023-04-03T16:24:34;12.10;56.20
15636;DHT22;7917;50.818;6.972;2023-04-03T16:27:01;12.00;58.00
15636;DHT22;7917;50.818;6.972;2023-04-03T16:29:28;12.00;59.00
15636;DHT22;7917;50.818;6.972;2023-04-03T16:31:54;11.90;59.20
15636;DHT22;7917;50.818;6.972;2023-04-03T16:34:21;11.70;60.50